Terminal Aerodrome Forecast
Issued by NWS

Home | Current Version | Previous Version | Text Only | Print | Product List | Glossary On
Versions: 1 2 3 4 5 6 7 8 9 10 11 12 13 14 15 16
649
FTUS44 KSJT 242320
TAFJCT
TAF
KJCT 242320Z 2500/2524 VRB06KT P6SM SKC
     FM250200 06008KT P6SM BKN015
     FM251500 08006KT P6SM BKN050=

USA.gov is the U.S. government's official web portal to all federal, state and local government web resources and services.